createdAt,value
2023-04-23T00:02:53.040Z,88.22
2023-04-23T00:06:57.497Z,88.43
2023-04-23T00:11:02.305Z,88.45
2023-04-23T00:15:07.529Z,88.36
2023-04-23T00:19:10.822Z,88.21
2023-04-23T00:23:14.268Z,88.34
2023-04-23T00:27:19.649Z,88.42
2023-04-23T00:31:24.457Z,88.34
2023-04-23T00:35:28.039Z,88.04
2023-04-23T00:39:31.775Z,87.75
2023-04-23T00:43:35.518Z,87.55
2023-04-23T00:47:47.821Z,87.39
2023-04-23T00:51:51.966Z,87.07
2023-04-23T00:55:55.735Z,87.05
2023-04-23T01:00:00.329Z,87.05
2023-04-23T01:04:03.994Z,87.00
2023-04-23T01:12:57.830Z,86.70
2023-04-23T01:17:04.607Z,86.88
2023-04-23T01:21:12.385Z,86.82
2023-04-23T01:25:27.389Z,86.64
2023-04-23T01:29:43.769Z,86.63
2023-04-23T01:33:47.329Z,86.59
2023-04-23T01:37:54.993Z,86.49
2023-04-23T01:41:58.672Z,86.45
2023-04-23T01:46:02.264Z,87.27
2023-04-23T01:50:06.104Z,87.13
2023-04-23T01:54:09.597Z,86.74
2023-04-23T01:58:13.254Z,86.51
2023-04-23T02:02:16.613Z,86.61
2023-04-23T02:06:20.069Z,86.58
2023-04-23T02:10:23.510Z,86.56
2023-04-23T02:14:26.658Z,86.41
2023-04-23T02:18:30.061Z,86.56
2023-04-23T02:22:33.675Z,86.86
2023-04-23T02:26:37.103Z,87.04
2023-04-23T02:30:58.693Z,87.36
2023-04-23T02:35:04.013Z,87.40
2023-04-23T02:39:07.933Z,87.40
2023-04-23T02:43:11.491Z,87.30
2023-04-23T02:47:14.788Z,86.92
2023-04-23T02:51:18.073Z,86.41
2023-04-23T02:55:21.458Z,86.28
2023-04-23T02:59:25.881Z,86.48
2023-04-23T03:03:32.924Z,86.63
2023-04-23T03:07:36.417Z,86.78
2023-04-23T03:11:39.900Z,86.45
2023-04-23T03:15:43.908Z,85.92
2023-04-23T03:19:48.004Z,85.59
2023-04-23T03:23:51.316Z,85.37
2023-04-23T03:27:55.016Z,85.15
2023-04-23T03:31:58.814Z,85.12
2023-04-23T03:36:02.472Z,85.28
2023-04-23T03:40:07.989Z,85.71
2023-04-23T03:44:11.565Z,86.02
2023-04-23T03:48:15.214Z,86.25
2023-04-23T03:52:19.517Z,86.83
2023-04-23T03:56:23.761Z,87.29
2023-04-23T04:00:28.817Z,87.63
2023-04-23T04:04:32.894Z,87.75
2023-04-23T04:08:36.454Z,87.78
2023-04-23T04:12:47.301Z,86.83
2023-04-23T04:16:51.075Z,85.05
2023-04-23T04:20:55.373Z,83.54
2023-04-23T04:24:58.728Z,82.35
2023-04-23T04:29:02.044Z,80.62
2023-04-23T04:33:05.513Z,78.39
2023-04-23T04:37:11.444Z,76.23
2023-04-23T04:41:15.646Z,74.05
2023-04-23T04:45:20.780Z,72.09
2023-04-23T04:49:24.120Z,70.63
2023-04-23T04:53:27.679Z,69.13
2023-04-23T04:57:31.296Z,67.92
2023-04-23T05:01:34.767Z,67.51
2023-04-23T05:05:38.057Z,67.22
2023-04-23T05:09:42.940Z,66.52
2023-04-23T05:13:48.642Z,65.99
2023-04-23T05:17:53.755Z,64.99
2023-04-23T05:21:56.959Z,64.74
2023-04-23T05:26:00.174Z,64.92
2023-04-23T05:30:05.310Z,65.33
2023-04-23T05:34:08.619Z,65.18
2023-04-23T05:38:11.844Z,65.04
2023-04-23T05:42:14.950Z,65.11
2023-04-23T05:46:19.268Z,66.10
2023-04-23T05:50:22.575Z,65.85
2023-04-23T05:54:25.786Z,66.65
2023-04-23T05:58:28.972Z,67.18
2023-04-23T06:02:34.031Z,66.66
2023-04-23T06:06:37.193Z,67.42
2023-04-23T06:10:40.492Z,67.85
2023-04-23T06:14:43.894Z,68.56
2023-04-23T06:18:47.619Z,68.63
2023-04-23T06:22:51.496Z,69.78
2023-04-23T06:26:54.922Z,70.52
2023-04-23T06:30:58.118Z,71.35
2023-04-23T06:35:02.318Z,73.15
2023-04-23T06:39:05.626Z,72.45
2023-04-23T06:43:09.781Z,71.78
2023-04-23T06:47:12.907Z,70.08
2023-04-23T06:51:16.493Z,68.65
2023-04-23T06:55:19.693Z,68.36
2023-04-23T06:59:22.714Z,65.75
2023-04-23T07:03:30.328Z,62.77
2023-04-23T07:07:34.185Z,62.36
2023-04-23T07:11:37.222Z,61.88
2023-04-23T07:15:41.670Z,62.35
2023-04-23T07:19:44.687Z,61.80
2023-04-23T07:23:47.618Z,60.54
2023-04-23T07:27:51.916Z,58.76
2023-04-23T07:36:52.828Z,57.67
2023-04-23T07:41:26.250Z,59.12
2023-04-23T07:45:29.348Z,58.17
2023-04-23T07:49:32.175Z,60.65
2023-04-23T07:53:36.185Z,61.09
2023-04-23T07:57:39.487Z,63.31
2023-04-23T08:01:42.489Z,63.75
2023-04-23T08:05:47.666Z,65.35
2023-04-23T08:09:50.712Z,63.49
2023-04-23T08:13:54.034Z,61.01
2023-04-23T08:18:23.225Z,61.11
2023-04-23T08:22:25.995Z,59.64
2023-04-23T08:26:29.010Z,59.81
2023-04-23T08:30:31.945Z,61.14
2023-04-23T08:34:37.286Z,60.98
2023-04-23T08:38:41.233Z,62.37
2023-04-23T08:43:20.598Z,61.72
2023-04-23T08:47:25.888Z,62.51
2023-04-23T08:51:34.434Z,60.96
2023-04-23T08:55:37.423Z,61.45
2023-04-23T08:59:41.384Z,59.51
2023-04-23T09:03:47.301Z,59.39
2023-04-23T09:07:56.330Z,59.54
2023-04-23T09:11:59.173Z,60.70
2023-04-23T09:16:02.125Z,60.67
2023-04-23T09:20:07.353Z,61.53
2023-04-23T09:24:18.778Z,58.31
2023-04-23T09:28:21.694Z,60.08
2023-04-23T09:32:35.440Z,60.64
2023-04-23T09:36:38.621Z,62.60
2023-04-23T09:45:36.294Z,59.84
2023-04-23T09:49:51.475Z,58.35
2023-04-23T09:53:55.720Z,58.06
2023-04-23T09:57:58.698Z,58.53
2023-04-23T10:02:07.068Z,61.09
2023-04-23T10:06:25.734Z,62.10
2023-04-23T10:10:51.496Z,59.07
2023-04-23T10:15:27.302Z,60.51
2023-04-23T10:19:32.889Z,59.22
2023-04-23T10:23:38.335Z,58.33
2023-04-23T10:27:53.222Z,58.52
2023-04-23T10:32:01.304Z,61.60
2023-04-23T10:36:04.749Z,61.12
2023-04-23T10:40:15.466Z,62.17
2023-04-23T10:44:44.876Z,63.50
2023-04-23T10:49:06.630Z,66.04
2023-04-23T10:53:22.474Z,63.81
2023-04-23T10:57:25.737Z,64.61
2023-04-23T11:01:32.896Z,65.53
2023-04-23T11:05:36.060Z,69.18
2023-04-23T11:09:41.913Z,66.37
2023-04-23T11:13:57.272Z,63.70
2023-04-23T11:18:02.541Z,64.94
2023-04-23T11:22:21.576Z,66.60
2023-04-23T11:26:31.516Z,67.45
2023-04-23T11:30:40.827Z,70.62
2023-04-23T11:34:46.935Z,72.53
2023-04-23T11:38:50.262Z,71.98
2023-04-23T11:42:55.339Z,71.73
2023-04-23T11:47:02.730Z,70.18
2023-04-23T11:51:05.896Z,72.18
2023-04-23T11:55:09.018Z,70.58
2023-04-23T11:59:12.000Z,70.25
2023-04-23T12:03:16.935Z,70.97
2023-04-23T12:07:26.396Z,69.58
2023-04-23T12:11:30.680Z,69.91
2023-04-23T12:38:26.616Z,74.41
2023-04-23T12:42:32.427Z,70.72
2023-04-23T12:51:12.294Z,73.01
2023-04-23T12:55:15.107Z,73.75
2023-04-23T12:59:18.060Z,72.81
2023-04-23T13:03:21.169Z,70.23
2023-04-23T13:07:24.175Z,68.46
2023-04-23T13:11:26.931Z,68.80
2023-04-23T13:15:30.596Z,68.31
2023-04-23T13:19:36.328Z,68.00
2023-04-23T13:23:46.711Z,68.00
2023-04-23T13:27:49.544Z,68.49
2023-04-23T13:31:52.669Z,68.81
2023-04-23T13:35:57.311Z,69.68
2023-04-23T13:40:01.366Z,70.83
2023-04-23T13:44:04.153Z,71.26
2023-04-23T13:48:08.360Z,70.88
2023-04-23T13:52:14.845Z,71.07
2023-04-23T13:56:18.058Z,72.43
2023-04-23T14:00:20.873Z,72.94
2023-04-23T14:04:24.816Z,72.77
2023-04-23T14:08:27.880Z,72.96
2023-04-23T14:12:30.936Z,73.77
2023-04-23T14:16:33.871Z,74.51
2023-04-23T14:20:37.015Z,75.81
2023-04-23T14:24:46.536Z,79.18
2023-04-23T14:28:53.192Z,79.78
2023-04-23T14:32:57.010Z,81.44
2023-04-23T14:37:08.291Z,82.31
2023-04-23T14:45:43.303Z,81.22
2023-04-23T14:49:47.394Z,82.42
2023-04-23T14:53:56.647Z,83.55
2023-04-23T14:58:01.670Z,84.48
2023-04-23T15:02:05.084Z,86.42
2023-04-23T15:06:08.785Z,87.35
2023-04-23T15:10:45.281Z,87.10
2023-04-23T15:14:51.219Z,88.57
2023-04-23T15:18:54.340Z,87.83
2023-04-23T15:28:25.771Z,85.28
2023-04-23T15:32:29.264Z,85.17
2023-04-23T15:36:33.452Z,86.47
2023-04-23T15:40:42.249Z,86.93
2023-04-23T15:44:49.016Z,87.08
2023-04-23T15:48:52.541Z,85.54
2023-04-23T15:52:58.475Z,85.07
2023-04-23T15:57:02.787Z,84.50
2023-04-23T16:01:07.490Z,83.63
2023-04-23T16:05:12.054Z,82.93
2023-04-23T16:09:17.835Z,83.74
2023-04-23T16:13:21.029Z,84.64
2023-04-23T16:17:25.225Z,84.67
2023-04-23T16:21:30.145Z,85.05
2023-04-23T16:25:33.672Z,85.03
2023-04-23T16:29:40.176Z,83.93
2023-04-23T16:33:43.174Z,84.38
2023-04-23T16:37:45.970Z,84.72
2023-04-23T16:41:48.760Z,84.79
2023-04-23T16:45:51.702Z,84.57
2023-04-23T16:49:54.616Z,84.55
2023-04-23T16:53:57.501Z,84.50
2023-04-23T16:58:00.434Z,83.38
2023-04-23T17:02:53.339Z,83.29
2023-04-23T17:07:22.989Z,82.84
2023-04-23T17:11:29.479Z,83.35
2023-04-23T17:15:32.334Z,84.18
2023-04-23T17:19:54.542Z,87.70
2023-04-23T17:23:57.719Z,89.95
2023-04-23T17:28:00.853Z,89.85
2023-04-23T17:32:04.460Z,89.53
2023-04-23T17:36:07.563Z,88.09
2023-04-23T17:40:10.906Z,87.57
2023-04-23T17:44:28.492Z,87.65
2023-04-23T17:48:31.761Z,87.29
2023-04-23T17:52:35.005Z,87.91
2023-04-23T17:56:38.516Z,87.73
2023-04-23T18:00:42.700Z,87.94
2023-04-23T18:04:45.895Z,88.44
2023-04-23T18:08:49.564Z,89.61
2023-04-23T18:12:52.882Z,91.11
2023-04-23T18:16:56.117Z,93.37
2023-04-23T18:20:59.527Z,93.77
2023-04-23T18:25:02.811Z,93.68
2023-04-23T18:29:06.665Z,93.89
2023-04-23T18:33:19.483Z,94.61
2023-04-23T18:37:33.334Z,96.05
2023-04-23T18:41:37.639Z,96.24
2023-04-23T18:45:40.907Z,95.70
2023-04-23T18:49:46.673Z,96.85
2023-04-23T18:53:50.074Z,98.53
2023-04-23T18:57:53.409Z,98.59
2023-04-23T19:01:56.998Z,97.63
2023-04-23T19:06:00.360Z,96.92
2023-04-23T19:10:04.032Z,96.85
2023-04-23T19:14:07.382Z,96.26
2023-04-23T19:18:14.418Z,96.00
2023-04-23T19:22:18.096Z,95.35
2023-04-23T19:26:21.546Z,94.98
2023-04-23T19:30:25.133Z,95.78
2023-04-23T19:34:28.579Z,97.07
2023-04-23T19:38:34.295Z,97.22
2023-04-23T19:42:38.470Z,98.77
2023-04-23T19:46:43.260Z,99.07
2023-04-23T19:50:49.504Z,99.94
2023-04-23T19:59:14.142Z,99.65
2023-04-23T20:03:18.214Z,99.52
2023-04-23T20:07:22.227Z,98.63
2023-04-23T20:11:29.930Z,95.66
2023-04-23T20:15:34.343Z,99.13
2023-04-23T20:19:45.464Z,99.08
2023-04-23T20:23:51.751Z,99.42
2023-04-23T20:42:39.373Z,99.47
2023-04-23T20:46:45.467Z,98.97
2023-04-23T20:50:48.282Z,98.94
2023-04-23T20:54:54.391Z,98.44
2023-04-23T20:58:57.812Z,98.14
2023-04-23T21:03:55.652Z,97.73
2023-04-23T21:07:58.572Z,97.47
2023-04-23T21:17:32.877Z,98.00
2023-04-23T21:21:40.732Z,97.81
2023-04-23T21:25:43.496Z,97.67
2023-04-23T21:29:46.872Z,97.23
2023-04-23T21:33:49.794Z,97.49
2023-04-23T21:37:55.742Z,97.80
2023-04-23T21:41:58.488Z,98.33
2023-04-23T21:46:01.576Z,98.35
2023-04-23T21:50:08.388Z,98.47
2023-04-23T21:54:11.209Z,98.82
2023-04-23T21:58:21.173Z,99.02
2023-04-23T22:02:24.645Z,99.19
2023-04-23T22:06:27.765Z,99.64
2023-04-23T22:11:00.208Z,99.94
2023-04-23T22:15:03.712Z,100.00
2023-04-23T22:19:06.912Z,100.00
2023-04-23T22:23:09.955Z,100.00
2023-04-23T22:27:12.789Z,100.00
2023-04-23T22:31:17.398Z,100.00
2023-04-23T22:35:20.291Z,100.00
2023-04-23T22:39:23.247Z,100.00
2023-04-23T22:43:26.258Z,100.00
2023-04-23T22:47:42.713Z,100.00
2023-04-23T22:51:45.591Z,100.00
2023-04-23T22:55:58.331Z,100.00
2023-04-23T23:00:01.130Z,100.00
2023-04-23T23:04:06.980Z,100.00
2023-04-23T23:08:09.761Z,100.00
2023-04-23T23:12:14.764Z,100.00
2023-04-23T23:16:18.062Z,100.00
2023-04-23T23:20:20.937Z,100.00
2023-04-23T23:24:23.715Z,100.00
2023-04-23T23:28:42.121Z,100.00
2023-04-23T23:32:46.179Z,100.00
2023-04-23T23:36:51.078Z,100.00
2023-04-23T23:41:21.004Z,100.00
2023-04-23T23:45:23.878Z,100.00
2023-04-23T23:49:26.785Z,100.00
2023-04-23T23:53:29.577Z,100.00
2023-04-23T23:57:36.654Z,100.00
